createdAt,value
2023-06-13T00:00:50.139Z,100058.02
2023-06-13T00:03:21.322Z,100056.66
2023-06-13T00:05:50.441Z,100054.45
2023-06-13T00:08:23.039Z,100051.29
2023-06-13T00:10:51.162Z,100048.00
2023-06-13T00:13:20.412Z,100041.88
2023-06-13T00:15:53.062Z,100042.98
2023-06-13T00:18:21.080Z,100047.02
2023-06-13T00:20:49.024Z,100042.64
2023-06-13T00:23:17.609Z,100044.13
2023-06-13T00:25:45.365Z,100038.63
2023-06-13T00:28:13.307Z,100038.05
2023-06-13T00:30:41.303Z,100038.19
2023-06-13T00:33:10.830Z,100040.57
2023-06-13T00:35:38.574Z,100034.95
2023-06-13T00:38:08.583Z,100033.98
2023-06-13T00:40:37.268Z,100025.13
2023-06-13T00:43:06.283Z,100026.79
2023-06-13T00:45:38.994Z,100025.39
2023-06-13T00:48:08.171Z,100020.19
2023-06-13T00:50:38.285Z,100019.48
2023-06-13T00:53:11.115Z,100011.44
2023-06-13T00:55:39.849Z,100011.19
2023-06-13T00:58:08.986Z,100007.23
2023-06-13T01:00:36.928Z,100008.11
2023-06-13T01:03:11.161Z,100008.21
2023-06-13T01:05:40.126Z,100010.56
2023-06-13T01:08:11.070Z,100006.02
2023-06-13T01:10:41.617Z,99999.19
2023-06-13T01:13:29.269Z,99997.27
2023-06-13T01:16:07.773Z,100002.00
2023-06-13T01:18:36.601Z,100001.74
2023-06-13T01:21:06.240Z,100001.21
2023-06-13T01:23:45.121Z,100004.36
2023-06-13T01:26:24.300Z,100001.48
2023-06-13T01:28:53.478Z,100009.05
2023-06-13T01:31:23.073Z,100007.85
2023-06-13T01:33:51.868Z,100010.36
2023-06-13T01:36:21.176Z,100010.25
2023-06-13T01:38:48.942Z,100015.54
2023-06-13T01:41:16.729Z,100013.29
2023-06-13T01:43:44.681Z,100010.98
2023-06-13T01:46:31.551Z,100016.91
2023-06-13T01:49:23.402Z,100015.90
2023-06-13T01:52:14.023Z,100013.23
2023-06-13T01:54:46.946Z,100011.52
2023-06-13T01:57:17.145Z,100008.48
2023-06-13T01:59:45.461Z,100014.40
2023-06-13T02:02:13.223Z,100011.85
2023-06-13T02:04:42.028Z,100012.56
2023-06-13T02:07:10.204Z,100010.43
2023-06-13T02:09:39.017Z,100006.73
2023-06-13T02:12:08.087Z,100010.14
2023-06-13T02:14:38.122Z,100014.04
2023-06-13T02:17:07.958Z,100018.64
2023-06-13T02:19:36.493Z,100019.63
2023-06-13T02:22:05.058Z,100017.14
2023-06-13T02:24:33.899Z,100016.08
2023-06-13T02:27:01.836Z,100013.64
2023-06-13T02:29:29.868Z,100018.47
2023-06-13T02:31:58.283Z,100017.34
2023-06-13T02:34:26.437Z,100019.59
2023-06-13T02:36:54.344Z,100023.11
2023-06-13T02:39:22.019Z,100027.54
2023-06-13T02:44:42.476Z,100023.63
2023-06-13T02:47:11.254Z,100020.88
2023-06-13T02:49:38.914Z,100024.77
2023-06-13T02:52:07.622Z,100030.70
2023-06-13T02:54:36.354Z,100027.23
2023-06-13T02:57:05.028Z,100027.01
2023-06-13T02:59:33.664Z,100020.49
2023-06-13T03:02:01.512Z,100021.62
2023-06-13T03:04:29.784Z,100019.69
2023-06-13T03:06:59.998Z,100019.90
2023-06-13T03:09:29.119Z,100021.13
2023-06-13T03:11:57.677Z,100021.19
2023-06-13T03:14:26.474Z,100024.66
2023-06-13T03:16:58.861Z,100022.69
2023-06-13T03:19:28.316Z,100023.20
2023-06-13T03:21:56.281Z,100020.48
2023-06-13T03:24:24.426Z,100021.23
2023-06-13T03:26:52.487Z,100017.98
2023-06-13T03:29:20.757Z,100021.23
2023-06-13T03:31:51.286Z,100020.27
2023-06-13T03:34:19.363Z,100015.85
2023-06-13T03:36:47.735Z,100018.95
2023-06-13T03:39:17.457Z,100018.25
2023-06-13T03:41:46.464Z,100019.30
2023-06-13T03:44:14.613Z,100025.69
2023-06-13T03:46:43.036Z,100025.81
2023-06-13T03:49:13.580Z,100020.28
2023-06-13T03:51:43.142Z,100022.55
2023-06-13T03:54:11.509Z,100026.70
2023-06-13T03:56:40.780Z,100025.42
2023-06-13T03:59:10.330Z,100023.26
2023-06-13T04:01:40.987Z,100024.89
2023-06-13T04:04:12.374Z,100025.05
2023-06-13T04:06:49.844Z,100024.74
2023-06-13T04:09:19.023Z,100024.10
2023-06-13T04:11:49.249Z,100024.17
2023-06-13T04:14:17.054Z,100025.76
2023-06-13T04:16:47.167Z,100024.70
2023-06-13T04:19:19.744Z,100023.84
2023-06-13T04:21:48.706Z,100027.97
2023-06-13T04:24:16.523Z,100026.25
2023-06-13T04:26:48.636Z,100020.56
2023-06-13T04:29:18.962Z,100012.73
2023-06-13T04:31:47.939Z,100013.19
2023-06-13T04:34:16.282Z,100016.97
2023-06-13T04:36:45.724Z,100017.17
2023-06-13T04:39:13.908Z,100021.58
2023-06-13T04:41:44.974Z,100023.14
2023-06-13T04:44:14.829Z,100027.67
2023-06-13T04:46:44.906Z,100029.77
2023-06-13T04:49:13.461Z,100028.11
2023-06-13T04:51:43.493Z,100027.04
2023-06-13T04:54:17.392Z,100020.79
2023-06-13T04:56:45.258Z,100021.31
2023-06-13T04:59:13.849Z,100023.27
2023-06-13T05:01:41.838Z,100016.92
2023-06-13T05:04:10.275Z,100015.69
2023-06-13T05:06:42.157Z,100014.73
2023-06-13T05:09:10.308Z,100009.00
2023-06-13T05:11:39.337Z,100001.19
2023-06-13T05:14:07.809Z,99998.16
2023-06-13T05:16:36.158Z,99999.46
2023-06-13T05:19:06.925Z,99996.89
2023-06-13T05:21:36.224Z,100004.52
2023-06-13T05:24:05.127Z,100004.56
2023-06-13T05:26:35.358Z,100010.52
2023-06-13T05:29:06.033Z,100009.58
2023-06-13T05:31:35.391Z,100011.77
2023-06-13T05:34:06.751Z,100013.60
2023-06-13T05:36:34.634Z,100007.08
2023-06-13T05:39:03.072Z,100004.34
2023-06-13T05:41:32.082Z,100001.86
2023-06-13T05:44:00.050Z,100001.21
2023-06-13T05:46:28.003Z,100002.05
2023-06-13T05:48:59.122Z,100003.02
2023-06-13T05:51:27.798Z,100003.62
2023-06-13T05:53:57.285Z,100004.39
2023-06-13T05:56:26.279Z,100002.05
2023-06-13T05:58:54.451Z,99997.75
2023-06-13T06:01:27.041Z,99996.16
2023-06-13T06:03:58.174Z,100000.04
2023-06-13T06:06:32.183Z,99999.88
2023-06-13T06:09:00.358Z,99999.55
2023-06-13T06:11:28.634Z,99999.42
2023-06-13T06:13:58.400Z,99994.13
2023-06-13T06:16:27.132Z,99999.11
2023-06-13T06:18:55.856Z,100001.04
2023-06-13T06:21:24.212Z,99998.95
2023-06-13T06:23:52.076Z,99997.14
2023-06-13T06:26:19.933Z,100001.52
2023-06-13T06:28:55.997Z,100001.77
2023-06-13T06:31:23.802Z,100004.41
2023-06-13T06:33:51.838Z,100001.27
2023-06-13T06:36:24.164Z,100001.12
2023-06-13T06:38:52.593Z,100005.89
2023-06-13T06:41:20.861Z,100001.61
2023-06-13T06:43:48.895Z,100003.95
2023-06-13T06:46:17.874Z,99997.77
2023-06-13T06:48:45.793Z,99998.50
2023-06-13T06:51:13.581Z,99996.15
2023-06-13T06:53:42.244Z,100000.10
2023-06-13T06:56:10.015Z,100001.86
2023-06-13T06:58:38.092Z,99997.25
2023-06-13T07:01:05.958Z,99997.30
2023-06-13T07:03:39.672Z,99993.50
2023-06-13T07:06:08.035Z,99992.26
2023-06-13T07:08:35.900Z,99991.42
2023-06-13T07:11:04.461Z,99992.27
2023-06-13T07:13:37.377Z,99990.20
2023-06-13T07:16:06.158Z,99986.80
2023-06-13T07:18:34.232Z,99986.33
2023-06-13T07:21:02.098Z,99981.15
2023-06-13T07:23:29.967Z,99982.21
2023-06-13T07:25:58.242Z,99984.72
2023-06-13T07:28:28.600Z,99983.86
2023-06-13T07:34:01.985Z,99986.30
2023-06-13T07:36:30.061Z,99985.66
2023-06-13T07:38:59.819Z,99984.79
2023-06-13T07:41:35.936Z,99984.94
2023-06-13T07:44:04.924Z,99989.02
2023-06-13T07:46:33.326Z,99992.63
2023-06-13T07:49:01.725Z,99992.36
2023-06-13T07:51:31.085Z,99988.11
2023-06-13T07:53:58.850Z,99990.33
2023-06-13T07:56:26.822Z,99989.38
2023-06-13T07:58:55.343Z,99989.23
2023-06-13T08:01:23.791Z,99985.48
2023-06-13T08:03:51.891Z,99988.58
2023-06-13T08:09:14.403Z,99986.47
2023-06-13T08:11:42.668Z,99986.27
2023-06-13T08:14:13.534Z,99987.94
2023-06-13T08:16:42.014Z,99985.47
2023-06-13T08:19:08.961Z,99985.77
2023-06-13T08:21:35.901Z,99985.17
2023-06-13T08:24:03.512Z,99986.05
2023-06-13T08:26:36.460Z,99984.02
2023-06-13T08:29:03.620Z,99987.77
2023-06-13T08:31:48.590Z,99985.31
2023-06-13T08:34:17.600Z,99981.88
2023-06-13T08:36:46.046Z,99983.91
2023-06-13T08:39:13.826Z,99988.05
2023-06-13T08:41:40.949Z,99983.83
2023-06-13T08:44:09.027Z,99986.36
2023-06-13T08:46:37.073Z,99987.63
2023-06-13T08:49:04.677Z,99983.80
2023-06-13T08:51:31.974Z,99981.40
2023-06-13T08:54:06.216Z,99981.65
2023-06-13T08:56:44.903Z,99986.11
2023-06-13T08:59:19.265Z,99986.84
2023-06-13T09:01:48.784Z,99993.25
2023-06-13T09:04:17.030Z,99994.54
2023-06-13T09:06:46.012Z,99994.41
2023-06-13T09:09:13.604Z,99996.52
2023-06-13T09:11:41.569Z,99991.10
2023-06-13T09:14:09.873Z,99993.60
2023-06-13T09:16:38.094Z,99991.62
2023-06-13T09:19:05.358Z,99995.02
2023-06-13T09:21:34.697Z,99994.11
2023-06-13T09:24:02.198Z,99992.34
2023-06-13T09:26:29.807Z,99991.14
2023-06-13T09:28:57.675Z,99984.57
2023-06-13T09:31:35.813Z,99983.47
2023-06-13T09:34:08.463Z,99988.41
2023-06-13T09:36:38.700Z,99992.32
2023-06-13T09:39:05.986Z,99996.94
2023-06-13T09:41:34.158Z,100000.36
2023-06-13T09:44:05.357Z,99996.29
2023-06-13T09:46:38.221Z,100004.40
2023-06-13T09:49:07.010Z,100006.03
2023-06-13T09:51:34.154Z,100005.48
2023-06-13T09:54:01.776Z,100003.56
2023-06-13T09:56:29.692Z,100001.74
2023-06-13T09:58:57.223Z,100003.27
2023-06-13T10:01:26.390Z,100006.91
2023-06-13T10:03:57.194Z,100011.27
2023-06-13T10:06:27.209Z,100007.80
2023-06-13T10:08:57.867Z,100008.10
2023-06-13T10:11:28.411Z,100008.16
2023-06-13T10:14:11.456Z,100006.05
2023-06-13T10:17:07.578Z,100009.84
2023-06-13T10:19:40.017Z,99999.79
2023-06-13T10:22:07.208Z,100000.36
2023-06-13T10:24:35.840Z,99999.35
2023-06-13T10:27:03.124Z,99999.95
2023-06-13T10:29:48.428Z,99998.33
2023-06-13T10:33:00.874Z,99992.73
2023-06-13T10:35:54.361Z,99985.60
2023-06-13T10:38:44.684Z,99982.69
2023-06-13T10:41:30.676Z,99984.50
2023-06-13T10:44:21.036Z,99992.72
2023-06-13T10:46:48.596Z,99995.06
2023-06-13T10:49:19.049Z,99993.82
2023-06-13T10:51:46.387Z,99991.33
2023-06-13T10:54:15.522Z,99988.98
2023-06-13T10:56:44.507Z,99989.70
2023-06-13T10:59:16.289Z,99988.80
2023-06-13T11:01:44.003Z,99985.73
2023-06-13T11:04:14.868Z,99990.27
2023-06-13T11:06:44.002Z,99991.37
2023-06-13T11:09:29.903Z,99992.12
2023-06-13T11:11:58.315Z,99998.67
2023-06-13T11:14:31.936Z,99999.73
2023-06-13T11:16:59.708Z,100004.66
2023-06-13T11:19:29.356Z,100004.23
2023-06-13T11:22:00.457Z,99996.74
2023-06-13T11:24:28.775Z,99999.96
2023-06-13T11:26:56.980Z,99992.05
2023-06-13T11:29:24.269Z,99987.67
2023-06-13T11:31:52.649Z,99984.69
2023-06-13T11:34:23.544Z,99985.66
2023-06-13T11:36:52.027Z,99985.39
2023-06-13T11:39:34.430Z,99989.14
2023-06-13T11:42:09.400Z,99991.48
2023-06-13T11:44:36.518Z,99992.27
2023-06-13T11:47:04.358Z,99994.35
2023-06-13T11:49:33.163Z,99989.10
2023-06-13T11:52:00.462Z,99986.23
2023-06-13T11:54:33.718Z,99985.06
2023-06-13T11:57:00.767Z,99986.44
2023-06-13T11:59:32.041Z,99987.36
2023-06-13T12:02:02.011Z,99986.55
2023-06-13T12:04:29.549Z,99989.42
2023-06-13T12:07:06.204Z,99993.42
2023-06-13T12:09:34.849Z,99982.04
2023-06-13T12:12:02.364Z,99985.23
2023-06-13T12:14:31.299Z,99981.39
2023-06-13T12:17:00.091Z,99977.59
2023-06-13T12:19:27.304Z,99976.34
2023-06-13T12:22:01.824Z,99975.12
2023-06-13T12:24:29.505Z,99974.13
2023-06-13T12:26:56.908Z,99976.73
2023-06-13T12:29:25.779Z,99975.08
2023-06-13T12:32:00.400Z,99974.64
2023-06-13T12:34:29.797Z,99974.50
2023-06-13T12:37:04.686Z,99968.63
2023-06-13T12:39:32.592Z,99969.94
2023-06-13T12:42:04.861Z,99974.29
2023-06-13T12:44:38.377Z,99973.60
2023-06-13T12:47:06.801Z,99978.35
2023-06-13T12:49:38.755Z,99977.40
2023-06-13T12:52:16.212Z,99978.33
2023-06-13T12:54:43.665Z,99974.84
2023-06-13T12:57:12.421Z,99980.56
2023-06-13T12:59:44.051Z,99983.24
2023-06-13T13:02:16.240Z,99983.77
2023-06-13T13:04:44.388Z,99982.54
2023-06-13T13:07:32.164Z,99981.03
2023-06-13T13:10:00.756Z,99981.46
2023-06-13T13:12:28.625Z,99979.04
2023-06-13T13:14:56.036Z,99983.19
2023-06-13T13:17:23.441Z,99985.23
2023-06-13T13:19:53.771Z,99982.71
2023-06-13T13:22:21.632Z,99982.36
2023-06-13T13:24:48.887Z,99981.39
2023-06-13T13:27:16.556Z,99981.84
2023-06-13T13:29:43.810Z,99980.52
2023-06-13T13:32:11.383Z,99976.61
2023-06-13T13:34:38.789Z,99975.93
2023-06-13T13:37:07.111Z,99975.65
2023-06-13T13:39:34.925Z,99975.66
2023-06-13T13:42:04.971Z,99971.48
2023-06-13T13:44:38.383Z,99968.27
2023-06-13T13:47:06.348Z,99971.20
2023-06-13T13:49:35.188Z,99971.30
2023-06-13T13:52:04.395Z,99975.44
2023-06-13T13:54:31.925Z,99975.92
2023-06-13T13:57:00.737Z,99975.40
2023-06-13T13:59:28.265Z,99975.49
2023-06-13T14:01:55.785Z,99972.94
2023-06-13T14:04:23.027Z,99971.76
2023-06-13T14:06:52.772Z,99971.14
2023-06-13T14:09:21.155Z,99974.80
2023-06-13T14:11:48.957Z,99976.83
2023-06-13T14:14:19.343Z,99971.14
2023-06-13T14:16:47.168Z,99969.58
2023-06-13T14:19:14.437Z,99963.90
2023-06-13T14:21:43.139Z,99962.77
2023-06-13T14:24:11.988Z,99964.52
2023-06-13T14:26:40.419Z,99970.80
2023-06-13T14:29:08.693Z,99964.84
2023-06-13T14:31:35.979Z,99967.27
2023-06-13T14:34:03.706Z,99972.48
2023-06-13T14:36:31.272Z,99973.47
2023-06-13T14:39:00.306Z,99975.19
2023-06-13T14:41:28.668Z,99972.77
2023-06-13T14:43:57.167Z,99978.31
2023-06-13T14:46:24.653Z,99971.98
2023-06-13T14:48:54.299Z,99967.61
2023-06-13T14:51:23.703Z,99968.09
2023-06-13T14:53:50.944Z,99970.55
2023-06-13T14:56:17.889Z,99968.56
2023-06-13T14:58:47.705Z,99969.56
2023-06-13T15:01:15.533Z,99972.55
2023-06-13T15:03:46.640Z,99979.31
2023-06-13T15:06:14.874Z,99980.88
2023-06-13T15:08:41.835Z,99978.89
2023-06-13T15:11:10.222Z,99979.77
2023-06-13T15:13:39.411Z,99978.83
2023-06-13T15:16:08.149Z,99978.83
2023-06-13T15:18:37.120Z,99976.55
2023-06-13T15:21:05.782Z,99975.48
2023-06-13T15:23:33.237Z,99972.39
2023-06-13T15:26:10.795Z,99970.11
2023-06-13T15:28:38.949Z,99969.05
2023-06-13T15:31:05.987Z,99966.10
2023-06-13T15:33:36.380Z,99965.59
2023-06-13T15:36:04.188Z,99967.52
2023-06-13T15:38:31.915Z,99966.05
2023-06-13T15:40:59.999Z,99970.73
2023-06-13T15:43:28.166Z,99970.80
2023-06-13T15:45:55.907Z,99972.38
2023-06-13T15:48:24.099Z,99972.59
2023-06-13T15:50:52.683Z,99968.05
2023-06-13T15:53:21.812Z,99973.23
2023-06-13T15:55:51.191Z,99972.45
2023-06-13T15:58:23.143Z,99973.05
2023-06-13T16:00:50.338Z,99971.42
2023-06-13T16:03:17.462Z,99970.33
2023-06-13T16:05:45.503Z,99964.52
2023-06-13T16:08:12.916Z,99963.08
2023-06-13T16:10:40.123Z,99964.88
2023-06-13T16:13:08.505Z,99965.03
2023-06-13T16:15:36.246Z,99961.16
2023-06-13T16:18:04.415Z,99964.25
2023-06-13T16:20:32.723Z,99965.92
2023-06-13T16:23:00.487Z,99967.11
2023-06-13T16:25:33.336Z,99968.43
2023-06-13T16:28:01.256Z,99965.64
2023-06-13T16:30:31.296Z,99968.80
2023-06-13T16:32:58.539Z,99968.51
2023-06-13T16:35:26.050Z,99961.85
2023-06-13T16:37:53.784Z,99963.55
2023-06-13T16:40:21.614Z,99961.78
2023-06-13T16:42:48.998Z,99958.87
2023-06-13T16:45:16.349Z,99956.91
2023-06-13T16:47:44.241Z,99952.81
2023-06-13T16:50:11.487Z,99958.73
2023-06-13T16:52:38.570Z,99955.60
2023-06-13T16:55:09.002Z,99959.02
2023-06-13T16:57:35.985Z,99963.92
2023-06-13T17:00:04.939Z,99964.12
2023-06-13T17:02:32.689Z,99965.23
2023-06-13T17:05:07.387Z,99966.30
2023-06-13T17:07:35.329Z,99963.00
2023-06-13T17:10:02.659Z,99960.69
2023-06-13T17:12:31.769Z,99959.27
2023-06-13T17:14:59.422Z,99958.23
2023-06-13T17:17:30.312Z,99965.64
2023-06-13T17:20:00.993Z,99968.13
2023-06-13T17:22:28.673Z,99967.55
2023-06-13T17:24:56.481Z,99965.17
2023-06-13T17:27:25.911Z,99966.48
2023-06-13T17:29:58.294Z,99968.29
2023-06-13T17:32:27.603Z,99967.24
2023-06-13T17:34:54.890Z,99971.48
2023-06-13T17:37:24.787Z,99968.79
2023-06-13T17:39:55.223Z,99967.04
2023-06-13T17:42:27.783Z,99965.41
2023-06-13T17:44:55.741Z,99963.02
2023-06-13T17:47:22.736Z,99963.89
2023-06-13T17:49:50.853Z,99964.58
2023-06-13T17:52:18.837Z,99966.09
2023-06-13T17:54:53.557Z,99965.77
2023-06-13T17:57:20.706Z,99969.24
2023-06-13T17:59:47.807Z,99973.60
2023-06-13T18:02:16.232Z,99971.31
2023-06-13T18:04:44.757Z,99966.66
2023-06-13T18:07:12.377Z,99968.71
2023-06-13T18:09:40.349Z,99970.33
2023-06-13T18:12:20.818Z,99976.77
2023-06-13T18:14:50.239Z,99978.31
2023-06-13T18:17:17.374Z,99977.38
2023-06-13T18:19:45.874Z,99979.25
2023-06-13T18:22:13.722Z,99980.89
2023-06-13T18:24:44.267Z,99981.60
2023-06-13T18:27:12.981Z,99982.28
2023-06-13T18:29:40.911Z,99982.66
2023-06-13T18:32:09.085Z,99987.07
2023-06-13T18:34:36.172Z,99984.90
2023-06-13T18:37:04.098Z,99986.77
2023-06-13T18:39:32.122Z,99986.64
2023-06-13T18:42:00.762Z,99984.76
2023-06-13T18:44:28.946Z,99982.46
2023-06-13T18:46:56.112Z,99984.10
2023-06-13T18:49:26.918Z,99987.17
2023-06-13T18:51:54.281Z,99987.80
2023-06-13T18:54:21.327Z,99986.88
2023-06-13T18:56:48.722Z,99990.36
2023-06-13T18:59:19.006Z,99988.73
2023-06-13T19:01:49.331Z,99984.59
2023-06-13T19:04:17.094Z,99984.16
2023-06-13T19:06:45.268Z,99988.40
2023-06-13T19:09:16.720Z,99987.58
2023-06-13T19:11:44.284Z,99989.10
2023-06-13T19:14:14.708Z,99990.02
2023-06-13T19:16:42.379Z,99985.73
2023-06-13T19:19:09.839Z,99986.73
2023-06-13T19:21:37.805Z,99984.34
2023-06-13T19:24:05.941Z,99986.65
2023-06-13T19:26:34.965Z,99986.55
2023-06-13T19:29:05.283Z,99985.27
2023-06-13T19:31:34.388Z,99987.54
2023-06-13T19:34:02.367Z,99989.14
2023-06-13T19:36:29.786Z,99987.95
2023-06-13T19:38:57.222Z,99989.38
2023-06-13T19:41:24.618Z,99989.96
2023-06-13T19:43:52.009Z,99988.84
2023-06-13T19:46:20.458Z,99989.44
2023-06-13T19:48:48.834Z,99986.73
2023-06-13T19:51:19.307Z,99992.27
2023-06-13T19:53:47.542Z,99995.10
2023-06-13T19:56:17.286Z,99992.64
2023-06-13T19:58:46.468Z,99993.96
2023-06-13T20:01:13.408Z,99991.84
2023-06-13T20:03:41.040Z,99991.98
2023-06-13T20:06:10.389Z,99992.05
2023-06-13T20:08:38.432Z,99992.09
2023-06-13T20:11:06.407Z,99992.58
2023-06-13T20:13:33.964Z,99990.44
2023-06-13T20:16:01.547Z,99987.91
2023-06-13T20:18:30.057Z,99989.84
2023-06-13T20:20:57.059Z,99990.06
2023-06-13T20:23:26.454Z,99990.27
2023-06-13T20:27:47.470Z,99993.23
2023-06-13T20:30:15.952Z,99990.60
2023-06-13T20:32:43.891Z,99992.27
2023-06-13T20:35:11.892Z,99989.59
2023-06-13T20:37:40.153Z,99987.89
2023-06-13T20:40:10.898Z,99978.54
2023-06-13T20:42:41.956Z,99983.79
2023-06-13T20:45:10.553Z,99981.62
2023-06-13T20:47:39.330Z,99978.89
2023-06-13T20:50:09.558Z,99979.27
2023-06-13T20:52:38.102Z,99979.45
2023-06-13T20:55:09.453Z,99980.99
2023-06-13T20:57:38.659Z,99979.69
2023-06-13T21:00:24.136Z,99979.26
2023-06-13T21:02:54.204Z,99979.17
2023-06-13T21:05:25.130Z,99975.25
2023-06-13T21:07:53.417Z,99971.17
2023-06-13T21:10:21.782Z,99974.19
2023-06-13T21:12:50.677Z,99971.64
2023-06-13T21:15:19.567Z,99966.64
2023-06-13T21:17:48.884Z,99963.55
2023-06-13T21:20:19.153Z,99962.01
2023-06-13T21:22:47.054Z,99956.09
2023-06-13T21:25:21.699Z,99953.12
2023-06-13T21:27:50.057Z,99950.42
2023-06-13T21:30:20.636Z,99950.40
2023-06-13T21:32:49.400Z,99948.91
2023-06-13T21:35:19.242Z,99950.98
2023-06-13T21:37:47.042Z,99947.48
2023-06-13T21:40:17.381Z,99950.91
2023-06-13T21:42:47.391Z,99948.30
2023-06-13T21:45:30.168Z,99948.17
2023-06-13T21:48:01.898Z,99944.64
2023-06-13T21:50:29.856Z,99944.44
2023-06-13T21:52:58.182Z,99943.75
2023-06-13T21:55:29.718Z,99937.73
2023-06-13T21:57:57.487Z,99936.59
2023-06-13T22:00:25.418Z,99938.59
2023-06-13T22:02:56.252Z,99939.84
2023-06-13T22:05:24.217Z,99935.77
2023-06-13T22:07:52.053Z,99935.00
2023-06-13T22:10:23.995Z,99930.36
2023-06-13T22:12:55.032Z,99932.11
2023-06-13T22:15:22.809Z,99929.09
2023-06-13T22:17:55.262Z,99931.50
2023-06-13T22:20:27.746Z,99928.60
2023-06-13T22:22:56.649Z,99929.48
2023-06-13T22:25:25.208Z,99926.95
2023-06-13T22:27:55.619Z,99923.61
2023-06-13T22:30:24.826Z,99919.45
2023-06-13T22:32:54.796Z,99915.23
2023-06-13T22:35:30.609Z,99915.10
2023-06-13T22:38:03.172Z,99915.11
2023-06-13T22:40:31.446Z,99919.40
2023-06-13T22:42:59.293Z,99919.06
2023-06-13T22:45:29.936Z,99917.77
2023-06-13T22:47:59.334Z,99919.73
2023-06-13T22:50:27.222Z,99924.60
2023-06-13T22:52:55.703Z,99920.19
2023-06-13T22:55:24.212Z,99923.76
2023-06-13T22:57:52.566Z,99917.63
2023-06-13T23:00:22.074Z,99916.77
2023-06-13T23:02:53.360Z,99919.17
2023-06-13T23:05:22.778Z,99917.45
2023-06-13T23:07:50.955Z,99921.54
2023-06-13T23:10:20.296Z,99921.84
2023-06-13T23:12:48.087Z,99920.14
2023-06-13T23:15:15.721Z,99925.30
2023-06-13T23:17:46.152Z,99922.91
2023-06-13T23:20:17.957Z,99920.23
2023-06-13T23:22:46.278Z,99924.13
2023-06-13T23:25:19.689Z,99919.86
2023-06-13T23:27:48.904Z,99922.14
2023-06-13T23:30:17.297Z,99919.13
2023-06-13T23:32:47.402Z,99916.44
2023-06-13T23:35:15.823Z,99916.72
2023-06-13T23:37:45.831Z,99917.14
2023-06-13T23:40:16.793Z,99914.57
2023-06-13T23:42:46.492Z,99916.76
2023-06-13T23:45:14.221Z,99915.63
2023-06-13T23:47:42.925Z,99918.80
2023-06-13T23:50:11.414Z,99914.22
2023-06-13T23:52:39.380Z,99916.35
2023-06-13T23:55:11.111Z,99916.64
2023-06-13T23:57:40.656Z,99922.02
